createdAt,value
2023-09-06T00:05:11.101Z,98939.97
2023-09-06T00:08:15.762Z,98946.00
2023-09-06T00:11:18.257Z,98943.19
2023-09-06T00:14:21.713Z,98942.41
2023-09-06T00:17:24.287Z,98939.59
2023-09-06T00:20:26.711Z,98939.59
2023-09-06T00:23:31.110Z,98936.03
2023-09-06T00:26:33.652Z,98945.19
2023-09-06T00:29:36.176Z,98930.84
2023-09-06T00:32:38.646Z,98936.44
2023-09-06T00:35:41.109Z,98941.25
2023-09-06T00:38:44.865Z,98935.66
2023-09-06T00:41:47.254Z,98934.84
2023-09-06T00:44:49.684Z,98926.88
2023-09-06T00:47:52.242Z,98931.66
2023-09-06T00:50:55.583Z,98933.66
2023-09-06T00:54:01.621Z,98942.06
2023-09-06T00:57:04.419Z,98941.25
2023-09-06T01:00:09.435Z,98944.47
2023-09-06T01:03:12.152Z,98948.06
2023-09-06T01:06:17.481Z,98939.31
2023-09-06T01:09:21.247Z,98932.09
2023-09-06T01:12:24.191Z,98929.31
2023-09-06T01:15:26.771Z,98934.53
2023-09-06T01:18:29.852Z,98938.13
2023-09-06T01:21:33.838Z,98926.16
2023-09-06T01:24:37.650Z,98932.94
2023-09-06T01:27:40.177Z,98925.34
2023-09-06T01:30:42.855Z,98930.94
2023-09-06T01:33:45.518Z,98922.97
2023-09-06T01:36:47.970Z,98924.19
2023-09-06T01:39:51.801Z,98934.16
2023-09-06T01:42:55.122Z,98924.19
2023-09-06T01:45:57.616Z,98915.81
2023-09-06T01:49:00.980Z,98921.41
2023-09-06T01:52:06.374Z,98917.00
2023-09-06T01:55:10.732Z,98918.19
2023-09-06T01:58:13.441Z,98918.19
2023-09-06T02:01:16.218Z,98923.78
2023-09-06T02:04:18.693Z,98922.22
2023-09-06T02:07:21.113Z,98921.41
2023-09-06T02:10:25.234Z,98913.44
2023-09-06T02:13:27.638Z,98921.84
2023-09-06T02:16:31.204Z,98916.63
2023-09-06T02:19:33.709Z,98920.25
2023-09-06T02:22:37.173Z,98924.22
2023-09-06T02:25:40.924Z,98915.84
2023-09-06T02:28:43.305Z,98925.03
2023-09-06T02:31:46.659Z,98915.06
2023-09-06T02:34:49.094Z,98913.47
2023-09-06T02:37:51.550Z,98909.88
2023-09-06T02:40:55.316Z,98916.69
2023-09-06T02:43:57.729Z,98922.28
2023-09-06T02:47:02.135Z,98922.28
2023-09-06T02:50:07.268Z,98923.50
2023-09-06T02:53:20.911Z,98919.91
2023-09-06T02:56:25.225Z,98919.09
2023-09-06T02:59:29.322Z,98915.84
2023-09-06T03:02:31.813Z,98915.84
2023-09-06T03:05:35.945Z,98914.31
2023-09-06T03:08:38.375Z,98914.66
2023-09-06T03:11:42.140Z,98915.88
2023-09-06T03:14:45.670Z,98914.31
2023-09-06T03:17:48.304Z,98917.09
2023-09-06T03:20:50.885Z,98921.91
2023-09-06T03:23:53.911Z,98915.50
2023-09-06T03:26:59.315Z,98917.53
2023-09-06T03:30:01.781Z,98923.91
2023-09-06T03:33:06.304Z,98919.13
2023-09-06T03:36:10.605Z,98921.91
2023-09-06T03:39:15.504Z,98921.53
2023-09-06T03:42:19.797Z,98926.72
2023-09-06T03:45:25.249Z,98922.38
2023-09-06T03:48:29.667Z,98921.75
2023-09-06T03:51:32.620Z,98918.22
2023-09-06T03:54:35.406Z,98917.50
2023-09-06T03:57:39.835Z,98921.13
2023-09-06T04:00:44.715Z,98926.38
2023-09-06T04:03:51.731Z,98928.44
2023-09-06T04:06:54.390Z,98921.31
2023-09-06T04:09:57.735Z,98917.75
2023-09-06T04:13:01.583Z,98921.38
2023-09-06T04:16:06.942Z,98915.84
2023-09-06T04:19:09.775Z,98921.03
2023-09-06T04:22:14.155Z,98924.63
2023-09-06T04:25:20.139Z,98925.41
2023-09-06T04:28:23.908Z,98929.44
2023-09-06T04:31:26.413Z,98917.06
2023-09-06T04:34:28.909Z,98924.66
2023-09-06T04:37:31.370Z,98919.91
2023-09-06T04:40:33.750Z,98920.72
2023-09-06T04:43:37.518Z,98928.69
2023-09-06T04:46:39.942Z,98928.72
2023-09-06T04:49:43.712Z,98930.69
2023-09-06T04:52:47.059Z,98930.31
2023-09-06T04:55:50.574Z,98932.72
2023-09-06T04:58:54.722Z,98936.28
2023-09-06T05:01:57.163Z,98936.69
2023-09-06T05:05:00.455Z,98939.09
2023-09-06T05:08:04.432Z,98946.25
2023-09-06T05:11:07.823Z,98949.00
2023-09-06T05:14:11.830Z,98947.81
2023-09-06T05:17:14.272Z,98950.25
2023-09-06T05:20:27.337Z,98950.22
2023-09-06T05:23:30.017Z,98951.00
2023-09-06T05:26:34.683Z,98953.78
2023-09-06T05:29:38.393Z,98949.38
2023-09-06T05:32:40.829Z,98952.53
2023-09-06T05:35:43.843Z,98952.56
2023-09-06T05:38:46.261Z,98959.72
2023-09-06T05:41:48.666Z,98948.94
2023-09-06T05:44:52.383Z,98961.69
2023-09-06T05:47:54.944Z,98951.28
2023-09-06T05:50:57.495Z,98959.25
2023-09-06T05:54:01.725Z,98958.03
2023-09-06T05:57:05.694Z,98967.19
2023-09-06T06:00:16.699Z,98960.78
2023-09-06T06:03:20.256Z,98960.78
2023-09-06T06:06:23.802Z,98962.34
2023-09-06T06:09:28.758Z,98967.94
2023-09-06T06:12:31.191Z,98974.69
2023-09-06T06:15:35.959Z,98974.69
2023-09-06T06:18:38.384Z,98971.88
2023-09-06T06:21:40.884Z,98982.63
2023-09-06T06:24:45.073Z,98981.81
2023-09-06T06:27:48.242Z,98984.22
2023-09-06T06:30:52.346Z,98988.19
2023-09-06T06:33:54.944Z,98984.59
2023-09-06T06:36:57.392Z,98983.00
2023-09-06T06:40:00.597Z,98979.78
2023-09-06T06:43:03.050Z,98983.78
2023-09-06T06:46:06.913Z,98982.56
2023-09-06T06:49:10.069Z,98969.00
2023-09-06T06:52:12.551Z,98972.94
2023-09-06T06:55:16.630Z,98976.16
2023-09-06T06:58:19.155Z,98969.34
2023-09-06T07:01:25.381Z,98979.69
2023-09-06T07:04:27.887Z,98980.09
2023-09-06T07:07:30.324Z,98982.47
2023-09-06T07:10:32.755Z,98978.88
2023-09-06T07:13:35.760Z,98976.88
2023-09-06T07:16:40.837Z,98990.03
2023-09-06T07:19:43.818Z,98993.59
2023-09-06T07:22:46.215Z,98999.19
2023-09-06T07:25:49.454Z,98991.19
2023-09-06T07:28:52.154Z,98991.97
2023-09-06T07:31:55.951Z,98989.59
2023-09-06T07:34:58.373Z,98991.97
2023-09-06T07:38:00.790Z,98985.53
2023-09-06T07:41:04.170Z,98978.78
2023-09-06T07:44:06.604Z,98985.53
2023-09-06T07:47:10.525Z,98980.31
2023-09-06T07:50:13.099Z,98979.91
2023-09-06T07:53:15.544Z,98982.31
2023-09-06T07:56:18.001Z,98986.25
2023-09-06T07:59:22.717Z,98981.47
2023-09-06T08:02:26.496Z,98981.06
2023-09-06T08:05:28.886Z,98986.25
2023-09-06T08:08:31.596Z,98986.63
2023-09-06T08:11:34.222Z,98977.81
2023-09-06T08:14:36.655Z,98991.00
2023-09-06T08:17:40.639Z,98996.56
2023-09-06T08:20:43.077Z,99000.97
2023-09-06T08:23:45.530Z,99001.34
2023-09-06T08:26:49.260Z,99003.78
2023-09-06T08:29:51.817Z,99008.16
2023-09-06T08:32:57.076Z,99007.31
2023-09-06T08:36:00.493Z,99008.09
2023-09-06T08:39:04.195Z,99002.13
2023-09-06T08:42:07.533Z,98998.91
2023-09-06T08:45:10.341Z,98990.53
2023-09-06T08:48:14.265Z,99003.28
2023-09-06T08:51:16.713Z,98998.84
2023-09-06T08:54:19.176Z,98998.06
2023-09-06T08:57:21.762Z,98998.47
2023-09-06T09:00:25.052Z,98997.25
2023-09-06T09:03:29.519Z,99010.81
2023-09-06T09:06:33.052Z,98998.06
2023-09-06T09:09:35.510Z,98998.44
2023-09-06T09:12:38.931Z,99005.59
2023-09-06T09:15:41.366Z,99004.41
2023-09-06T09:18:45.716Z,99005.22
2023-09-06T09:21:48.228Z,99006.78
2023-09-06T09:24:50.792Z,99004.78
2023-09-06T09:27:57.316Z,98997.97
2023-09-06T09:31:00.054Z,98999.56
2023-09-06T09:34:03.832Z,99005.16
2023-09-06T09:37:06.892Z,98991.97
2023-09-06T09:40:18.911Z,98996.38
2023-09-06T09:43:21.642Z,98991.59
2023-09-06T09:46:28.184Z,98987.56
2023-09-06T09:49:32.099Z,98989.16
2023-09-06T09:52:34.538Z,98986.38
2023-09-06T09:55:38.071Z,98989.94
2023-09-06T09:58:41.233Z,98987.94
2023-09-06T10:01:43.732Z,98978.34
2023-09-06T10:04:47.907Z,98979.13
2023-09-06T10:07:50.419Z,98983.53
2023-09-06T10:10:53.137Z,98979.91
2023-09-06T10:13:57.535Z,98989.94
2023-09-06T10:17:00.169Z,98983.13
2023-09-06T10:20:04.244Z,98976.75
2023-09-06T10:23:07.918Z,98982.69
2023-09-06T10:26:11.080Z,98982.69
2023-09-06T10:29:13.564Z,98982.69
2023-09-06T10:32:16.004Z,98982.28
2023-09-06T10:35:23.173Z,98973.09
2023-09-06T10:38:25.598Z,98974.69
2023-09-06T10:41:28.205Z,98966.72
2023-09-06T10:44:31.179Z,98971.09
2023-09-06T10:47:34.974Z,98970.69
2023-09-06T10:50:38.899Z,98964.69
2023-09-06T10:53:41.557Z,98969.47
2023-09-06T10:56:51.554Z,98961.09
2023-09-06T10:59:57.624Z,98957.09
2023-09-06T11:03:15.997Z,98958.66
2023-09-06T11:06:20.165Z,98953.06
2023-09-06T11:09:23.452Z,98959.47
2023-09-06T11:12:25.875Z,98953.06
2023-09-06T11:15:28.416Z,98941.88
2023-09-06T11:18:32.363Z,98949.06
2023-09-06T11:21:37.393Z,98937.09
2023-09-06T11:24:39.941Z,98942.25
2023-09-06T11:27:42.350Z,98941.47
2023-09-06T11:30:46.257Z,98938.28
2023-09-06T11:33:54.395Z,98924.28
2023-09-06T11:36:59.000Z,98918.69
2023-09-06T11:40:02.367Z,98925.06
2023-09-06T11:43:05.763Z,98923.06
2023-09-06T11:46:09.877Z,98920.28
2023-09-06T11:49:13.069Z,98911.88
2023-09-06T11:52:18.214Z,98916.25
2023-09-06T11:55:20.682Z,98909.09
2023-09-06T11:58:25.147Z,98905.06
2023-09-06T12:01:27.995Z,98910.66
2023-09-06T12:04:32.648Z,98910.66
2023-09-06T12:07:36.464Z,98895.09
2023-09-06T12:10:40.046Z,98902.28
2023-09-06T12:13:42.610Z,98894.66
2023-09-06T12:16:45.081Z,98889.06
2023-09-06T12:19:47.761Z,98895.47
2023-09-06T12:22:51.694Z,98886.28
2023-09-06T12:25:54.082Z,98884.28
2023-09-06T12:28:56.663Z,98872.66
2023-09-06T12:32:00.548Z,98868.69
2023-09-06T12:35:05.196Z,98873.44
2023-09-06T12:38:09.498Z,98873.84
2023-09-06T12:41:11.959Z,98871.84
2023-09-06T12:44:14.620Z,98872.63
2023-09-06T12:47:17.580Z,98861.44
2023-09-06T12:50:20.785Z,98861.81
2023-09-06T12:53:24.949Z,98861.81
2023-09-06T12:56:27.451Z,98864.22
2023-09-06T12:59:29.852Z,98853.00
2023-09-06T13:02:32.347Z,98854.59
2023-09-06T13:05:34.965Z,98858.97
2023-09-06T13:08:38.857Z,98861.34
2023-09-06T13:11:41.260Z,98843.34
2023-09-06T13:14:43.664Z,98847.72
2023-09-06T13:17:46.166Z,98845.75
2023-09-06T13:20:50.504Z,98846.53
2023-09-06T13:23:54.221Z,98843.31
2023-09-06T13:26:56.609Z,98840.09
2023-09-06T13:29:59.014Z,98838.88
2023-09-06T13:33:01.445Z,98838.47
2023-09-06T13:36:05.403Z,98834.47
2023-09-06T13:39:11.054Z,98821.28
2023-09-06T13:42:13.550Z,98829.25
2023-09-06T13:45:16.159Z,98828.03
2023-09-06T13:48:18.708Z,98825.63
2023-09-06T13:51:21.332Z,98831.59
2023-09-06T13:54:25.100Z,98827.56
2023-09-06T13:57:29.423Z,98819.97
2023-09-06T14:00:31.790Z,98811.94
2023-09-06T14:03:34.348Z,98806.72
2023-09-06T14:06:38.688Z,98816.69
2023-09-06T14:09:42.583Z,98821.06
2023-09-06T14:12:45.071Z,98808.66
2023-09-06T14:15:47.477Z,98804.66
2023-09-06T14:18:49.971Z,98801.44
2023-09-06T14:21:53.225Z,98787.03
2023-09-06T14:24:57.224Z,98792.19
2023-09-06T14:27:59.655Z,98786.16
2023-09-06T14:31:02.125Z,98793.38
2023-09-06T14:34:04.598Z,98783.75
2023-09-06T14:37:07.093Z,98787.34
2023-09-06T14:40:11.737Z,98781.31
2023-09-06T14:43:14.923Z,98781.31
2023-09-06T14:46:17.886Z,98782.88
2023-09-06T14:49:21.284Z,98790.06
2023-09-06T14:52:23.798Z,98790.50
2023-09-06T14:55:29.009Z,98783.63
2023-09-06T14:58:31.681Z,98784.00
2023-09-06T15:01:34.719Z,98781.59
2023-09-06T15:04:38.435Z,98779.56
2023-09-06T15:07:40.900Z,98785.97
2023-09-06T15:10:45.647Z,98781.94
2023-09-06T15:13:48.065Z,98777.94
2023-09-06T15:16:50.478Z,98774.69
2023-09-06T15:19:52.959Z,98770.69
2023-09-06T15:22:55.383Z,98772.28
2023-09-06T15:25:59.348Z,98774.28
2023-09-06T15:29:01.805Z,98781.50
2023-09-06T15:32:06.949Z,98773.13
2023-09-06T15:35:09.709Z,98772.72
2023-09-06T15:38:12.888Z,98763.88
2023-09-06T15:41:18.605Z,98764.66
2023-09-06T15:44:21.557Z,98768.25
2023-09-06T15:47:24.149Z,98771.41
2023-09-06T15:50:26.628Z,98772.22
2023-09-06T15:53:29.121Z,98767.41
2023-09-06T15:56:32.952Z,98769.00
2023-09-06T15:59:35.402Z,98764.19
2023-09-06T16:02:38.738Z,98765.78
2023-09-06T16:05:41.513Z,98767.00
2023-09-06T16:08:44.121Z,98751.78
2023-09-06T16:11:55.274Z,98756.16
2023-09-06T16:14:57.683Z,98757.72
2023-09-06T16:18:00.146Z,98755.72
2023-09-06T16:21:02.813Z,98753.69
2023-09-06T16:24:06.412Z,98755.31
2023-09-06T16:27:10.344Z,98760.91
2023-09-06T16:30:14.324Z,98758.50
2023-09-06T16:33:18.172Z,98763.22
2023-09-06T16:36:20.665Z,98766.00
2023-09-06T16:39:23.274Z,98764.00
2023-09-06T16:42:27.041Z,98763.63
2023-09-06T16:45:29.983Z,98762.06
2023-09-06T16:48:32.754Z,98764.53
2023-09-06T16:51:35.737Z,98760.59
2023-09-06T16:54:38.270Z,98761.00
2023-09-06T16:57:41.988Z,98767.03
2023-09-06T17:00:44.941Z,98761.50
2023-09-06T17:03:47.448Z,98765.88
2023-09-06T17:06:49.868Z,98771.09
2023-09-06T17:09:52.303Z,98771.53
2023-09-06T17:12:56.054Z,98771.97
2023-09-06T17:15:58.472Z,98770.38
2023-09-06T17:19:00.961Z,98768.38
2023-09-06T17:22:03.338Z,98766.78
2023-09-06T17:25:10.137Z,98774.03
2023-09-06T17:28:14.152Z,98773.22
2023-09-06T17:31:18.141Z,98782.84
2023-09-06T17:34:20.626Z,98786.88
2023-09-06T17:37:23.017Z,98793.69
2023-09-06T17:40:25.643Z,98784.47
2023-09-06T17:43:29.487Z,98784.47
2023-09-06T17:46:31.864Z,98786.47
2023-09-06T17:49:35.112Z,98786.91
2023-09-06T17:52:38.473Z,98792.50
2023-09-06T17:55:41.294Z,98793.72
2023-09-06T17:58:45.506Z,98796.88
2023-09-06T18:01:48.095Z,98797.69
2023-09-06T18:04:50.731Z,98798.09
2023-09-06T18:07:53.571Z,98800.91
2023-09-06T18:10:56.421Z,98801.34
2023-09-06T18:14:00.234Z,98801.34
2023-09-06T18:17:02.720Z,98800.59
2023-09-06T18:20:08.115Z,98809.41
2023-09-06T18:23:10.961Z,98815.00
2023-09-06T18:26:13.796Z,98817.81
2023-09-06T18:29:18.232Z,98810.63
2023-09-06T18:32:20.716Z,98814.66
2023-09-06T18:35:23.306Z,98820.25
2023-09-06T18:38:25.903Z,98825.84
2023-09-06T18:41:28.339Z,98825.06
2023-09-06T18:44:32.674Z,98825.06
2023-09-06T18:47:35.294Z,98827.03
2023-09-06T18:50:40.334Z,98836.66
2023-09-06T18:53:42.778Z,98833.06
2023-09-06T18:56:45.148Z,98841.88
2023-09-06T18:59:49.000Z,98837.50
2023-09-06T19:02:51.889Z,98846.34
2023-09-06T19:05:54.374Z,98841.13
2023-09-06T19:08:57.685Z,98852.31
2023-09-06T19:12:00.136Z,98851.53
2023-09-06T19:15:05.158Z,98847.16
2023-09-06T19:18:08.140Z,98848.81
2023-09-06T19:21:10.653Z,98857.19
2023-09-06T19:24:13.094Z,98856.41
2023-09-06T19:27:15.612Z,98856.81
2023-09-06T19:30:19.549Z,98858.03
2023-09-06T19:35:14.761Z,98848.13
2023-09-06T19:38:21.378Z,98854.94
2023-09-06T19:41:24.318Z,98868.53
2023-09-06T19:44:26.900Z,98865.38
2023-09-06T19:47:29.633Z,98868.59
2023-09-06T19:50:33.540Z,98865.00
2023-09-06T19:53:36.200Z,98874.22
2023-09-06T19:56:38.737Z,98868.25
2023-09-06T19:59:41.328Z,98871.47
2023-09-06T20:02:44.130Z,98863.88
2023-09-06T20:05:49.861Z,98862.25
2023-09-06T20:08:53.431Z,98859.88
2023-09-06T20:11:56.038Z,98863.91
2023-09-06T20:14:58.647Z,98865.91
2023-09-06T20:18:01.956Z,98860.69
2023-09-06T20:21:08.987Z,98865.06
2023-09-06T20:24:11.547Z,98861.09
2023-09-06T20:27:14.591Z,98866.69
2023-09-06T20:30:17.229Z,98871.94
2023-09-06T20:33:21.653Z,98864.75
2023-09-06T20:36:26.984Z,98873.97
2023-09-06T20:39:29.580Z,98874.00
2023-09-06T20:42:32.162Z,98870.81
2023-09-06T20:45:35.596Z,98867.66
2023-09-06T20:48:41.409Z,98861.28
2023-09-06T20:51:46.037Z,98872.06
2023-09-06T20:54:48.766Z,98864.13
2023-09-06T20:57:51.490Z,98868.56
2023-09-06T21:00:56.590Z,98866.91
2023-09-06T21:03:59.361Z,98870.47
2023-09-06T21:07:04.424Z,98863.28
2023-09-06T21:10:07.803Z,98862.84
2023-09-06T21:13:10.362Z,98862.78
2023-09-06T21:16:13.164Z,98863.13
2023-09-06T21:19:15.717Z,98862.75
2023-09-06T21:22:19.667Z,98868.72
2023-09-06T21:25:23.187Z,98866.34
2023-09-06T21:28:25.854Z,98880.72
2023-09-06T21:31:28.588Z,98875.13
2023-09-06T21:34:31.250Z,98873.94
2023-09-06T21:37:35.276Z,98867.53
2023-09-06T21:40:41.745Z,98880.31
2023-09-06T21:43:44.257Z,98881.09
2023-09-06T21:46:46.842Z,98876.72
2023-09-06T21:49:49.553Z,98890.72
2023-09-06T21:52:54.395Z,98883.91
2023-09-06T21:55:56.916Z,98873.94
2023-09-06T21:59:00.545Z,98881.91
2023-09-06T22:02:03.204Z,98888.28
2023-09-06T22:05:06.636Z,98885.50
2023-09-06T22:08:10.604Z,98893.88
2023-09-06T22:11:13.209Z,98901.06
2023-09-06T22:14:18.082Z,98894.66
2023-09-06T22:17:20.635Z,98883.06
2023-09-06T22:20:24.383Z,98893.88
2023-09-06T22:23:28.392Z,98900.28
2023-09-06T22:26:30.908Z,98895.47
2023-09-06T22:29:33.440Z,98895.47
2023-09-06T22:32:35.995Z,98906.66
2023-09-06T22:35:38.606Z,98898.25
2023-09-06T22:38:42.495Z,98896.25
2023-09-06T22:41:45.052Z,98891.44
2023-09-06T22:44:47.625Z,98899.06
2023-09-06T22:47:50.178Z,98905.44
2023-09-06T22:50:52.760Z,98893.44
2023-09-06T22:53:56.645Z,98896.59
2023-09-06T22:56:59.183Z,98891.00
2023-09-06T23:00:02.181Z,98895.38
2023-09-06T23:03:05.293Z,98879.81
2023-09-06T23:06:11.127Z,98894.66
2023-09-06T23:09:19.915Z,98893.03
2023-09-06T23:12:23.354Z,98898.63
2023-09-06T23:15:27.992Z,98897.84
2023-09-06T23:18:32.568Z,98898.63
2023-09-06T23:21:39.274Z,98900.63
2023-09-06T23:24:45.951Z,98900.63
2023-09-06T23:27:48.755Z,98891.44
2023-09-06T23:30:55.402Z,98900.25
2023-09-06T23:34:00.397Z,98890.66
2023-09-06T23:37:06.234Z,98901.06
2023-09-06T23:40:21.297Z,98886.66
2023-09-06T23:43:24.562Z,98884.63
2023-09-06T23:46:27.635Z,98888.25
2023-09-06T23:49:32.870Z,98890.22
2023-09-06T23:52:35.540Z,98891.06
2023-09-06T23:55:39.649Z,98889.44
2023-09-06T23:58:42.252Z,98887.44
